createdAt,value
2018-09-28T00:02:01.586Z,3.13
2018-09-28T00:04:04.783Z,4.40
2018-09-28T00:06:07.972Z,3.70
2018-09-28T00:08:11.532Z,3.27
2018-09-28T00:10:14.708Z,2.37
2018-09-28T00:12:18.172Z,5.10
2018-09-28T00:14:21.401Z,4.50
2018-09-28T00:16:25.413Z,3.60
2018-09-28T00:18:28.880Z,4.00
2018-09-28T00:20:32.076Z,3.17
2018-09-28T00:22:35.268Z,2.97
2018-09-28T00:24:38.456Z,3.00
2018-09-28T00:26:42.453Z,3.10
2018-09-28T00:28:45.913Z,4.10
2018-09-28T00:30:49.434Z,2.70
2018-09-28T00:32:52.936Z,4.20
2018-09-28T00:34:56.144Z,3.27
2018-09-28T00:36:59.363Z,2.70
2018-09-28T00:39:02.685Z,3.90
2018-09-28T00:41:05.889Z,2.90
2018-09-28T00:43:09.396Z,2.83
2018-09-28T00:45:12.594Z,3.90
2018-09-28T00:47:15.761Z,2.60
2018-09-28T00:49:18.968Z,3.17
2018-09-28T00:51:22.160Z,2.40
2018-09-28T00:53:26.052Z,2.70
2018-09-28T00:55:29.244Z,2.57
2018-09-28T00:57:32.429Z,2.30
2018-09-28T00:59:35.611Z,2.93
2018-09-28T01:01:38.979Z,2.60
2018-09-28T01:03:42.164Z,1.63
2018-09-28T01:05:45.711Z,2.60
2018-09-28T01:07:48.916Z,2.40
2018-09-28T01:09:52.084Z,2.40
2018-09-28T01:11:55.264Z,2.33
2018-09-28T01:13:59.772Z,2.20
2018-09-28T01:16:03.267Z,2.00
2018-09-28T01:18:06.785Z,2.10
2018-09-28T01:20:10.318Z,2.03
2018-09-28T01:22:13.503Z,1.47
2018-09-28T01:24:16.716Z,1.70
2018-09-28T01:26:19.912Z,1.33
2018-09-28T01:28:23.421Z,1.60
2018-09-28T01:30:26.612Z,1.33
2018-09-28T01:32:29.842Z,1.40
2018-09-28T01:34:33.357Z,1.10
2018-09-28T01:36:36.527Z,1.23
2018-09-28T01:38:39.957Z,0.87
2018-09-28T01:40:43.331Z,1.80
2018-09-28T01:42:46.508Z,1.23
2018-09-28T01:44:49.716Z,1.90
2018-09-28T01:46:53.276Z,1.20
2018-09-28T01:48:56.485Z,1.80
2018-09-28T01:50:59.679Z,1.20
2018-09-28T01:53:02.846Z,1.20
2018-09-28T01:55:06.777Z,1.33
2018-09-28T01:57:10.141Z,1.33
2018-09-28T01:59:13.320Z,1.23
2018-09-28T02:01:16.484Z,1.07
2018-09-28T02:03:19.720Z,1.00
2018-09-28T02:05:22.903Z,0.90
2018-09-28T02:07:26.636Z,1.00
2018-09-28T02:09:30.448Z,1.83
2018-09-28T02:11:33.880Z,1.50
2018-09-28T02:13:37.080Z,1.10
2018-09-28T02:15:40.512Z,1.70
2018-09-28T02:17:44.345Z,1.42
2018-09-28T02:19:47.838Z,1.90
2018-09-28T02:21:51.180Z,1.40
2018-09-28T02:23:54.816Z,2.00
2018-09-28T02:25:58.262Z,1.42
2018-09-28T02:28:02.104Z,1.60
2018-09-28T02:30:06.437Z,1.92
2018-09-28T02:32:09.944Z,1.40
2018-09-28T02:34:13.572Z,1.42
2018-09-28T02:36:16.769Z,1.90
2018-09-28T02:38:19.968Z,1.80
2018-09-28T02:40:23.180Z,1.30
2018-09-28T02:42:26.743Z,1.87
2018-09-28T02:44:29.940Z,1.40
2018-09-28T02:46:33.219Z,1.27
2018-09-28T02:48:36.437Z,1.47
2018-09-28T02:50:39.999Z,1.67
2018-09-28T02:52:43.412Z,0.93
2018-09-28T02:54:46.604Z,1.73
2018-09-28T02:56:49.972Z,1.80
2018-09-28T02:58:53.278Z,1.30
2018-09-28T03:00:56.460Z,1.70
2018-09-28T03:02:59.672Z,1.70
2018-09-28T03:05:03.464Z,1.50
2018-09-28T03:07:07.033Z,1.87
2018-09-28T03:09:11.104Z,1.70
2018-09-28T03:11:15.697Z,2.12
2018-09-28T03:13:19.140Z,2.12
2018-09-28T03:15:22.659Z,1.70
2018-09-28T03:17:25.887Z,1.73
2018-09-28T03:19:29.374Z,1.13
2018-09-28T03:21:32.786Z,1.23
2018-09-28T03:23:36.019Z,1.43
2018-09-28T03:25:39.191Z,2.07
2018-09-28T03:27:42.394Z,1.27
2018-09-28T03:29:45.815Z,1.83
2018-09-28T03:31:49.005Z,2.10
2018-09-28T03:33:52.416Z,1.90
2018-09-28T03:35:55.900Z,1.47
2018-09-28T03:37:59.096Z,1.63
2018-09-28T03:40:02.646Z,1.20
2018-09-28T03:42:06.384Z,2.20
2018-09-28T03:44:09.853Z,2.73
2018-09-28T03:46:13.358Z,2.20
2018-09-28T03:48:17.184Z,2.47
2018-09-28T03:50:20.741Z,2.70
2018-09-28T03:52:23.941Z,2.30
2018-09-28T03:54:27.629Z,1.67
2018-09-28T03:56:30.820Z,2.50
2018-09-28T03:58:33.992Z,1.63
2018-09-28T04:00:37.293Z,2.37
2018-09-28T04:02:41.246Z,2.70
2018-09-28T04:04:44.427Z,1.67
2018-09-28T04:06:47.624Z,1.43
2018-09-28T04:08:50.869Z,2.60
2018-09-28T04:10:54.056Z,1.80
2018-09-28T04:12:57.261Z,2.50
2018-09-28T04:15:00.504Z,1.50
2018-09-28T04:17:03.852Z,2.00
2018-09-28T04:19:07.678Z,1.80
2018-09-28T04:21:10.865Z,2.30
2018-09-28T04:23:14.370Z,1.47
2018-09-28T04:25:18.459Z,1.70
2018-09-28T04:27:21.716Z,2.20
2018-09-28T04:29:25.253Z,2.80
2018-09-28T04:31:29.232Z,2.63
2018-09-28T04:33:32.422Z,2.47
2018-09-28T04:35:35.646Z,1.93
2018-09-28T04:37:39.101Z,2.43
2018-09-28T04:39:42.353Z,1.97
2018-09-28T04:41:45.881Z,2.87
2018-09-28T04:43:49.064Z,1.87
2018-09-28T04:45:52.396Z,1.60
2018-09-28T04:47:56.009Z,2.80
2018-09-28T04:49:59.850Z,2.50
2018-09-28T04:52:03.449Z,2.60
2018-09-28T04:54:06.887Z,2.10
2018-09-28T04:56:10.080Z,1.67
2018-09-28T04:58:13.627Z,2.90
2018-09-28T05:00:18.172Z,2.50
2018-09-28T05:02:21.345Z,1.87
2018-09-28T05:04:24.548Z,2.30
2018-09-28T05:06:28.207Z,2.27
2018-09-28T05:08:31.393Z,1.67
2018-09-28T05:10:34.612Z,2.00
2018-09-28T05:12:37.904Z,1.53
2018-09-28T05:14:41.096Z,2.87
2018-09-28T05:16:44.304Z,1.80
2018-09-28T05:18:47.520Z,2.57
2018-09-28T05:20:50.828Z,2.83
2018-09-28T05:22:54.004Z,1.70
2018-09-28T05:24:57.253Z,2.40
2018-09-28T05:27:00.803Z,2.97
2018-09-28T05:29:04.307Z,2.60
2018-09-28T05:31:08.042Z,1.73
2018-09-28T05:33:11.341Z,2.63
2018-09-28T05:35:14.525Z,1.67
2018-09-28T05:37:18.141Z,2.17
2018-09-28T05:39:21.516Z,2.60
2018-09-28T05:41:24.945Z,2.10
2018-09-28T05:43:28.452Z,2.07
2018-09-28T05:45:31.669Z,2.07
2018-09-28T05:47:34.830Z,2.00
2018-09-28T05:49:38.042Z,2.53
2018-09-28T05:51:41.274Z,2.17
2018-09-28T05:53:44.454Z,2.83
2018-09-28T05:55:47.631Z,3.30
2018-09-28T05:57:52.903Z,2.30
2018-09-28T06:01:05.389Z,2.40
2018-09-28T06:03:12.037Z,2.70
2018-09-28T06:05:20.856Z,2.30
2018-09-28T06:07:24.336Z,2.80
2018-09-28T06:09:27.548Z,2.50
2018-09-28T06:11:30.713Z,2.10
2018-09-28T06:13:40.468Z,2.80
2018-09-28T06:15:43.676Z,2.20
2018-09-28T06:17:46.951Z,2.73
2018-09-28T06:19:50.878Z,2.45
2018-09-28T06:21:54.064Z,3.37
2018-09-28T06:23:57.267Z,2.10
2018-09-28T06:26:01.354Z,2.27
2018-09-28T06:28:04.737Z,2.40
2018-09-28T06:30:08.039Z,3.23
2018-09-28T06:32:11.470Z,2.13
2018-09-28T06:34:14.640Z,1.83
2018-09-28T06:36:18.083Z,2.00
2018-09-28T06:38:21.457Z,3.10
2018-09-28T06:40:24.828Z,2.70
2018-09-28T06:42:28.170Z,4.03
2018-09-28T06:44:31.777Z,1.70
2018-09-28T06:46:35.236Z,2.37
2018-09-28T06:48:38.439Z,1.80
2018-09-28T06:50:41.664Z,1.97
2018-09-28T06:52:45.221Z,2.87
2018-09-28T06:54:48.589Z,1.40
2018-09-28T06:56:51.789Z,1.90
2018-09-28T06:58:55.452Z,3.30
2018-09-28T07:00:58.797Z,1.77
2018-09-28T07:03:01.981Z,2.27
2018-09-28T07:05:05.192Z,2.37
2018-09-28T07:07:08.403Z,1.87
2018-09-28T07:09:12.729Z,3.50
2018-09-28T07:11:16.228Z,2.57
2018-09-28T07:13:19.477Z,2.37
2018-09-28T07:15:22.654Z,1.80
2018-09-28T07:17:25.941Z,2.00
2018-09-28T07:19:29.121Z,1.40
2018-09-28T07:21:32.462Z,1.93
2018-09-28T07:23:35.925Z,1.37
2018-09-28T07:25:39.200Z,2.03
2018-09-28T07:27:42.381Z,2.03
2018-09-28T07:29:45.999Z,1.20
2018-09-28T07:31:49.518Z,1.80
2018-09-28T07:33:52.733Z,1.57
2018-09-28T07:35:56.048Z,1.30
2018-09-28T07:37:59.767Z,1.82
2018-09-28T07:40:03.303Z,2.60
2018-09-28T07:42:07.129Z,1.80
2018-09-28T07:44:10.531Z,1.67
2018-09-28T07:46:13.781Z,1.30
2018-09-28T07:48:17.002Z,1.53
2018-09-28T07:50:20.418Z,1.70
2018-09-28T07:52:23.950Z,1.17
2018-09-28T07:54:27.510Z,1.60
2018-09-28T07:56:30.765Z,1.77
2018-09-28T07:58:33.999Z,2.20
2018-09-28T08:00:37.216Z,2.17
2018-09-28T08:02:40.408Z,1.60
2018-09-28T08:04:43.586Z,1.27
2018-09-28T08:06:47.000Z,1.37
2018-09-28T08:08:50.179Z,1.80
2018-09-28T08:10:53.370Z,2.27
2018-09-28T08:12:57.129Z,1.57
2018-09-28T08:15:00.304Z,1.87
2018-09-28T08:17:03.844Z,1.60
2018-09-28T08:19:07.264Z,1.10
2018-09-28T08:21:10.456Z,1.20
2018-09-28T08:23:13.639Z,1.77
2018-09-28T08:25:17.319Z,1.37
2018-09-28T08:27:20.504Z,2.20
2018-09-28T08:29:23.728Z,1.30
2018-09-28T08:31:26.984Z,1.57
2018-09-28T08:33:30.152Z,1.33
2018-09-28T08:35:33.353Z,1.40
2018-09-28T08:37:36.584Z,1.33
2018-09-28T08:39:39.783Z,1.47
2018-09-28T08:41:43.001Z,1.57
2018-09-28T08:43:46.444Z,1.73
2018-09-28T08:45:50.484Z,1.27
2018-09-28T08:47:53.699Z,1.20
2018-09-28T08:49:56.897Z,0.90
2018-09-28T08:52:00.100Z,1.80
2018-09-28T08:54:03.273Z,1.83
2018-09-28T08:56:07.301Z,1.27
2018-09-28T08:58:10.485Z,1.80
2018-09-28T09:00:14.030Z,1.07
2018-09-28T09:02:17.257Z,2.10
2018-09-28T09:04:20.576Z,1.03
2018-09-28T09:06:24.129Z,1.83
2018-09-28T09:08:27.312Z,1.90
2018-09-28T09:10:30.521Z,2.00
2018-09-28T09:12:34.193Z,1.13
2018-09-28T09:14:37.401Z,1.60
2018-09-28T09:16:40.605Z,1.33
2018-09-28T09:18:43.845Z,0.97
2018-09-28T09:20:47.096Z,1.53
2018-09-28T09:22:50.620Z,2.77
2018-09-28T09:24:53.852Z,1.80
2018-09-28T09:26:57.094Z,2.20
2018-09-28T09:29:00.268Z,1.47
2018-09-28T09:31:03.653Z,1.33
2018-09-28T09:33:06.834Z,1.10
2018-09-28T09:35:10.359Z,1.30
2018-09-28T09:37:14.280Z,2.53
2018-09-28T09:39:17.533Z,2.27
2018-09-28T09:41:20.712Z,1.53
2018-09-28T09:43:23.906Z,1.37
2018-09-28T09:45:27.087Z,1.60
2018-09-28T09:47:30.572Z,1.63
2018-09-28T09:49:33.764Z,1.77
2018-09-28T09:51:36.947Z,1.57
2018-09-28T09:53:40.377Z,1.47
2018-09-28T09:55:43.564Z,2.23
2018-09-28T09:57:46.819Z,3.57
2018-09-28T09:59:50.511Z,2.27
2018-09-28T10:01:59.092Z,2.10
2018-09-28T10:04:10.300Z,0.80
2018-09-28T10:06:14.146Z,1.30
2018-09-28T10:08:17.332Z,2.10
2018-09-28T10:10:20.505Z,1.33
2018-09-28T10:12:23.788Z,1.33
2018-09-28T10:14:27.113Z,1.00
2018-09-28T10:16:30.377Z,1.37
2018-09-28T10:18:33.577Z,1.60
2018-09-28T10:20:36.837Z,1.70
2018-09-28T10:22:41.055Z,1.77
2018-09-28T10:24:44.305Z,1.60
2018-09-28T10:26:47.857Z,1.30
2018-09-28T10:28:51.154Z,1.23
2018-09-28T10:30:54.342Z,2.03
2018-09-28T10:32:57.749Z,1.50
2018-09-28T10:35:01.021Z,1.37
2018-09-28T10:37:04.556Z,1.20
2018-09-28T10:39:08.134Z,1.70
2018-09-28T10:41:11.579Z,1.80
2018-09-28T10:43:15.279Z,1.57
2018-09-28T10:45:18.503Z,1.10
2018-09-28T10:47:21.865Z,1.83
2018-09-28T10:49:25.078Z,1.70
2018-09-28T10:51:28.886Z,1.93
2018-09-28T10:53:32.838Z,1.07
2018-09-28T10:55:36.034Z,1.10
2018-09-28T10:57:39.245Z,1.33
2018-09-28T10:59:42.434Z,1.33
2018-09-28T11:01:45.845Z,2.17
2018-09-28T11:03:49.122Z,1.83
2018-09-28T11:05:52.736Z,1.95
2018-09-28T11:07:56.137Z,1.33
2018-09-28T11:09:59.732Z,1.40
2018-09-28T11:12:02.992Z,1.43
2018-09-28T11:14:06.541Z,1.53
2018-09-28T11:16:09.831Z,2.30
2018-09-28T11:18:13.284Z,1.63
2018-09-28T11:20:16.453Z,2.30
2018-09-28T11:22:20.009Z,1.33
2018-09-28T11:24:23.263Z,1.40
2018-09-28T11:26:27.277Z,1.50
2018-09-28T11:28:30.661Z,1.30
2018-09-28T11:30:33.860Z,1.57
2018-09-28T11:32:37.069Z,1.23
2018-09-28T11:34:40.265Z,1.93
2018-09-28T11:36:43.461Z,1.67
2018-09-28T11:38:46.653Z,1.47
2018-09-28T11:40:50.542Z,1.40
2018-09-28T11:42:53.740Z,1.47
2018-09-28T11:44:56.933Z,1.50
2018-09-28T11:47:00.177Z,1.27
2018-09-28T11:49:03.692Z,1.20
2018-09-28T11:51:07.120Z,1.50
2018-09-28T11:53:10.836Z,1.60
2018-09-28T11:55:14.099Z,1.63
2018-09-28T11:57:17.433Z,1.30
2018-09-28T11:59:20.904Z,1.70
2018-09-28T12:01:24.415Z,1.50
2018-09-28T12:03:27.745Z,1.60
2018-09-28T12:05:31.404Z,1.60
2018-09-28T12:07:34.724Z,0.90
2018-09-28T12:09:39.934Z,1.50
2018-09-28T12:11:44.025Z,1.30
2018-09-28T12:13:48.691Z,2.00
2018-09-28T12:15:51.965Z,0.97
2018-09-28T12:17:55.320Z,1.53
2018-09-28T12:19:58.596Z,1.60
2018-09-28T12:22:02.438Z,1.20
2018-09-28T12:24:05.851Z,1.50
2018-09-28T12:26:09.289Z,1.70
2018-09-28T12:28:12.664Z,1.20
2018-09-28T12:30:15.912Z,1.40
2018-09-28T12:32:19.266Z,0.87
2018-09-28T12:34:22.692Z,1.07
2018-09-28T12:36:25.931Z,1.23
2018-09-28T12:38:29.274Z,1.60
2018-09-28T12:40:32.481Z,1.20
2018-09-28T12:42:35.731Z,1.00
2018-09-28T12:44:39.104Z,0.90
2018-09-28T12:46:42.666Z,0.83
2018-09-28T12:48:46.087Z,0.90
2018-09-28T12:50:49.547Z,1.37
2018-09-28T12:52:53.228Z,1.77
2018-09-28T12:54:56.704Z,1.45
2018-09-28T12:57:00.172Z,1.40
2018-09-28T12:59:04.275Z,1.40
2018-09-28T13:01:07.782Z,1.43
2018-09-28T13:03:10.934Z,1.33
2018-09-28T13:05:14.128Z,1.47
2018-09-28T13:07:17.315Z,1.67
2018-09-28T13:09:20.505Z,1.37
2018-09-28T13:11:24.072Z,1.40
2018-09-28T13:13:27.501Z,1.50
2018-09-28T13:15:30.683Z,1.90
2018-09-28T13:17:34.232Z,1.37
2018-09-28T13:19:37.433Z,1.40
2018-09-28T13:21:40.654Z,1.33
2018-09-28T13:23:44.044Z,1.80
2018-09-28T13:25:47.480Z,1.20
2018-09-28T13:27:50.661Z,1.23
2018-09-28T13:29:54.037Z,1.13
2018-09-28T13:31:57.238Z,1.10
2018-09-28T13:34:00.778Z,1.30
2018-09-28T13:36:04.893Z,1.07
2018-09-28T13:38:08.771Z,1.60
2018-09-28T13:40:12.106Z,1.47
2018-09-28T13:42:15.769Z,1.20
2018-09-28T13:44:19.509Z,1.30
2018-09-28T13:46:22.914Z,1.87
2018-09-28T13:48:26.653Z,1.40
2018-09-28T13:50:30.001Z,1.40
2018-09-28T13:52:33.415Z,1.30
2018-09-28T13:54:36.813Z,1.80
2018-09-28T13:56:40.179Z,1.47
2018-09-28T13:58:44.239Z,1.60
2018-09-28T14:00:47.944Z,1.53
2018-09-28T14:02:51.307Z,1.07
2018-09-28T14:04:54.931Z,1.20
2018-09-28T14:06:58.576Z,1.23
2018-09-28T14:09:01.995Z,1.40
2018-09-28T14:11:05.525Z,1.33
2018-09-28T14:13:08.863Z,2.40
2018-09-28T14:15:12.101Z,1.50
2018-09-28T14:17:15.652Z,1.13
2018-09-28T14:19:19.252Z,1.17
2018-09-28T14:21:22.504Z,1.40
2018-09-28T14:23:25.688Z,1.83
2018-09-28T14:25:29.383Z,1.10
2018-09-28T14:27:32.708Z,1.30
2018-09-28T14:29:35.952Z,1.03
2018-09-28T14:31:39.200Z,1.50
2018-09-28T14:33:42.475Z,1.70
2018-09-28T14:35:45.826Z,1.30
2018-09-28T14:37:49.377Z,1.00
2018-09-28T14:39:52.553Z,1.20
2018-09-28T14:41:55.771Z,1.50
2018-09-28T14:43:59.135Z,1.20
2018-09-28T14:46:02.600Z,1.50
2018-09-28T14:48:06.529Z,1.17
2018-09-28T14:50:09.943Z,1.33
2018-09-28T14:52:13.137Z,1.40
2018-09-28T14:54:16.559Z,1.30
2018-09-28T14:56:20.090Z,1.33
2018-09-28T14:58:23.939Z,1.33
2018-09-28T15:00:27.708Z,1.47
2018-09-28T15:02:31.113Z,1.37
2018-09-28T15:04:34.524Z,1.47
2018-09-28T15:06:38.113Z,0.97
2018-09-28T15:08:41.484Z,1.33
2018-09-28T15:10:44.854Z,1.63
2018-09-28T15:12:48.248Z,1.30
2018-09-28T15:14:51.646Z,2.00
2018-09-28T15:16:54.964Z,1.80
2018-09-28T15:18:58.218Z,1.27
2018-09-28T15:21:01.457Z,0.90
2018-09-28T15:23:04.968Z,1.40
2018-09-28T15:25:08.701Z,1.30
2018-09-28T15:27:11.872Z,1.13
2018-09-28T15:29:15.064Z,1.20
2018-09-28T15:31:18.368Z,1.07
2018-09-28T15:33:21.592Z,1.30
2018-09-28T15:35:24.947Z,1.10
2018-09-28T15:37:28.771Z,2.03
2018-09-28T15:39:32.593Z,0.97
2018-09-28T15:41:35.764Z,1.50
2018-09-28T15:43:39.604Z,1.10
2018-09-28T15:45:43.332Z,1.63
2018-09-28T15:47:46.600Z,1.47
2018-09-28T15:49:49.978Z,1.17
2018-09-28T15:51:53.161Z,1.63
2018-09-28T15:53:56.370Z,1.23
2018-09-28T15:55:59.556Z,1.60
2018-09-28T15:58:02.744Z,1.73
2018-09-28T16:00:06.743Z,1.20
2018-09-28T16:02:10.534Z,1.50
2018-09-28T16:04:13.827Z,1.33
2018-09-28T16:06:17.432Z,1.57
2018-09-28T16:08:20.698Z,1.57
2018-09-28T16:10:23.900Z,1.73
2018-09-28T16:12:27.463Z,1.27
2018-09-28T16:14:30.650Z,1.53
2018-09-28T16:16:33.875Z,1.37
2018-09-28T16:18:37.233Z,1.30
2018-09-28T16:20:40.971Z,1.20
2018-09-28T16:22:44.781Z,1.47
2018-09-28T16:24:48.206Z,3.10
2018-09-28T16:26:51.676Z,1.47
2018-09-28T16:28:54.879Z,1.20
2018-09-28T16:30:58.221Z,1.20
2018-09-28T16:33:01.536Z,1.33
2018-09-28T16:35:05.659Z,1.43
2018-09-28T16:37:08.844Z,1.50
2018-09-28T16:39:12.369Z,1.53
2018-09-28T16:41:15.564Z,1.63
2018-09-28T16:43:18.931Z,1.27
2018-09-28T16:45:22.404Z,1.33
2018-09-28T16:47:25.904Z,1.47
2018-09-28T16:49:29.092Z,1.67
2018-09-28T16:51:32.468Z,1.20
2018-09-28T16:53:35.692Z,1.30
2018-09-28T16:55:38.881Z,1.30
2018-09-28T16:57:42.471Z,1.67
2018-09-28T16:59:45.856Z,1.40
2018-09-28T17:01:49.214Z,1.47
2018-09-28T17:03:52.403Z,1.27
2018-09-28T17:05:55.844Z,1.83
2018-09-28T17:07:59.031Z,1.43
2018-09-28T17:10:02.493Z,1.90
2018-09-28T17:12:05.703Z,1.03
2018-09-28T17:14:08.881Z,1.83
2018-09-28T17:16:12.571Z,1.70
2018-09-28T17:18:16.088Z,2.53
2018-09-28T17:20:19.276Z,1.90
2018-09-28T17:22:22.533Z,2.07
2018-09-28T17:24:25.852Z,1.17
2018-09-28T17:26:29.236Z,1.87
2018-09-28T17:28:32.473Z,1.23
2018-09-28T17:30:35.839Z,1.10
2018-09-28T17:32:39.481Z,1.47
2018-09-28T17:34:42.681Z,1.30
2018-09-28T17:36:45.844Z,1.67
2018-09-28T17:38:49.352Z,1.60
2018-09-28T17:40:52.556Z,2.20
2018-09-28T17:42:55.780Z,1.47
2018-09-28T17:44:58.948Z,1.60
2018-09-28T17:47:02.510Z,1.10
2018-09-28T17:49:05.983Z,2.30
2018-09-28T17:51:09.350Z,1.40
2018-09-28T17:53:12.528Z,1.50
2018-09-28T17:55:15.725Z,1.90
2018-09-28T17:57:18.925Z,2.10
2018-09-28T17:59:22.141Z,1.50
2018-09-28T18:01:25.441Z,1.20
2018-09-28T18:03:28.840Z,1.93
2018-09-28T18:05:32.159Z,1.10
2018-09-28T18:07:36.024Z,1.83
2018-09-28T18:09:39.595Z,1.33
2018-09-28T18:11:42.740Z,1.17
2018-09-28T18:13:45.925Z,1.53
2018-09-28T18:15:49.153Z,1.90
2018-09-28T18:17:52.443Z,2.40
2018-09-28T18:19:55.633Z,1.70
2018-09-28T18:21:59.523Z,2.07
2018-09-28T18:24:02.708Z,1.50
2018-09-28T18:26:06.264Z,1.83
2018-09-28T18:28:09.540Z,1.80
2018-09-28T18:30:12.700Z,1.63
2018-09-28T18:32:15.880Z,1.37
2018-09-28T18:34:19.176Z,1.00
2018-09-28T18:36:22.429Z,1.33
2018-09-28T18:38:26.591Z,1.43
2018-09-28T18:40:29.896Z,1.30
2018-09-28T18:42:33.384Z,1.10
2018-09-28T18:44:36.548Z,1.60
2018-09-28T18:46:40.296Z,1.03
2018-09-28T18:48:43.732Z,1.50
2018-09-28T18:50:46.909Z,1.27
2018-09-28T18:52:50.097Z,2.77
2018-09-28T18:54:53.329Z,1.47
2018-09-28T18:56:56.522Z,1.83
2018-09-28T18:58:59.949Z,0.80
2018-09-28T19:01:03.135Z,1.47
2018-09-28T19:03:06.419Z,1.60
2018-09-28T19:05:09.993Z,1.90
2018-09-28T19:07:13.203Z,1.07
2018-09-28T19:09:16.485Z,1.17
2018-09-28T19:11:19.736Z,1.47
2018-09-28T19:13:22.996Z,1.43
2018-09-28T19:15:26.164Z,1.80
2018-09-28T19:17:29.367Z,1.93
2018-09-28T19:19:32.556Z,1.23
2018-09-28T19:21:35.809Z,1.70
2018-09-28T19:23:39.418Z,0.67
2018-09-28T19:25:42.939Z,1.00
2018-09-28T19:27:46.104Z,1.47
2018-09-28T19:29:50.020Z,1.47
2018-09-28T19:31:53.223Z,1.37
2018-09-28T19:33:56.466Z,1.23
2018-09-28T19:35:59.852Z,1.70
2018-09-28T19:38:03.038Z,2.63
2018-09-28T19:40:06.680Z,1.50
2018-09-28T19:42:09.871Z,1.73
2018-09-28T19:44:13.046Z,1.70
2018-09-28T19:46:16.291Z,1.73
2018-09-28T19:48:19.613Z,1.33
2018-09-28T19:50:23.135Z,1.40
2018-09-28T19:52:26.312Z,1.40
2018-09-28T19:54:29.909Z,1.07
2018-09-28T19:56:33.761Z,1.43
2018-09-28T19:58:38.256Z,1.63
2018-09-28T20:00:41.943Z,1.70
2018-09-28T20:02:45.298Z,1.17
2018-09-28T20:04:48.475Z,1.50
2018-09-28T20:06:52.068Z,1.80
2018-09-28T20:08:55.562Z,1.80
2018-09-28T20:10:58.759Z,1.30
2018-09-28T20:13:02.347Z,1.43
2018-09-28T20:15:06.768Z,1.87
2018-09-28T20:17:10.212Z,1.53
2018-09-28T20:19:13.707Z,2.50
2018-09-28T20:21:17.163Z,1.90
2018-09-28T20:23:20.415Z,1.87
2018-09-28T20:25:23.949Z,2.13
2018-09-28T20:27:27.717Z,2.10
2018-09-28T20:29:30.977Z,1.80
2018-09-28T20:31:34.548Z,1.57
2018-09-28T20:33:38.132Z,1.60
2018-09-28T20:35:41.745Z,1.47
2018-09-28T20:37:44.959Z,1.73
2018-09-28T20:39:48.173Z,1.30
2018-09-28T20:41:51.340Z,1.23
2018-09-28T20:43:55.048Z,1.67
2018-09-28T20:45:58.503Z,2.30
2018-09-28T20:48:01.748Z,1.83
2018-09-28T20:50:05.228Z,2.12
2018-09-28T20:52:09.372Z,1.52
2018-09-28T20:54:12.565Z,1.63
2018-09-28T20:56:15.738Z,2.03
2018-09-28T20:58:18.942Z,1.93
2018-09-28T21:00:22.485Z,1.80
2018-09-28T21:02:26.024Z,1.60
2018-09-28T21:04:29.308Z,1.80
2018-09-28T21:06:32.476Z,1.80
2018-09-28T21:08:36.228Z,1.70
2018-09-28T21:10:39.939Z,2.50
2018-09-28T21:12:43.396Z,2.65
2018-09-28T21:14:46.872Z,2.75
2018-09-28T21:16:50.689Z,2.00
2018-09-28T21:18:54.448Z,2.40
2018-09-28T21:20:58.004Z,2.57
2018-09-28T21:23:01.588Z,2.62
2018-09-28T21:25:05.710Z,2.22
2018-09-28T21:27:09.207Z,2.10
2018-09-28T21:29:12.382Z,2.77
2018-09-28T21:31:15.969Z,2.60
2018-09-28T21:33:19.721Z,2.20
2018-09-28T21:35:22.971Z,2.50
2018-09-28T21:37:26.632Z,3.80
2018-09-28T21:39:30.280Z,2.80
2018-09-28T21:41:33.500Z,1.97
2018-09-28T21:43:36.673Z,1.53
2018-09-28T21:45:40.044Z,1.97
2018-09-28T21:47:43.515Z,3.20
2018-09-28T21:49:47.076Z,2.40
2018-09-28T21:51:50.641Z,1.90
2018-09-28T21:53:54.154Z,2.33
2018-09-28T21:55:57.615Z,2.17
2018-09-28T21:58:01.213Z,3.20
2018-09-28T22:00:05.735Z,2.42
2018-09-28T22:02:09.008Z,1.67
2018-09-28T22:04:12.197Z,2.10
2018-09-28T22:06:15.352Z,3.83
2018-09-28T22:08:18.544Z,1.10
2018-09-28T22:10:21.781Z,2.03
2018-09-28T22:12:25.423Z,2.80
2018-09-28T22:14:29.447Z,2.27
2018-09-28T22:16:32.953Z,2.75
2018-09-28T22:18:36.425Z,2.90
2018-09-28T22:20:39.624Z,2.40
2018-09-28T22:22:43.129Z,2.08
2018-09-28T22:24:46.586Z,2.70
2018-09-28T22:26:50.376Z,2.40
2018-09-28T22:28:53.832Z,3.15
2018-09-28T22:30:57.279Z,2.10
2018-09-28T22:33:00.485Z,2.17
2018-09-28T22:35:04.155Z,2.50
2018-09-28T22:37:07.630Z,2.50
2018-09-28T22:39:11.868Z,2.50
2018-09-28T22:41:15.941Z,2.30
2018-09-28T22:43:19.172Z,3.00
2018-09-28T22:45:22.945Z,2.90
2018-09-28T22:47:26.732Z,2.50
2018-09-28T22:49:30.209Z,2.47
2018-09-28T22:51:33.664Z,2.47
2018-09-28T22:53:37.540Z,2.67
2018-09-28T22:55:41.260Z,2.67
2018-09-28T22:57:44.725Z,2.80
2018-09-28T22:59:48.237Z,2.98
2018-09-28T23:01:51.436Z,2.95
2018-09-28T23:03:54.605Z,3.55
2018-09-28T23:05:58.604Z,2.52
2018-09-28T23:08:02.061Z,2.83
2018-09-28T23:10:05.488Z,2.87
2018-09-28T23:12:09.217Z,2.67
2018-09-28T23:14:13.011Z,3.15
2018-09-28T23:16:16.457Z,2.40
2018-09-28T23:18:19.652Z,2.40
2018-09-28T23:20:22.830Z,3.00
2018-09-28T23:22:26.018Z,2.10
2018-09-28T23:24:29.192Z,2.97
2018-09-28T23:26:33.633Z,2.20
2018-09-28T23:28:37.072Z,2.67
2018-09-28T23:30:40.612Z,2.70
2018-09-28T23:32:44.504Z,2.60
2018-09-28T23:34:47.932Z,2.90
2018-09-28T23:36:51.105Z,2.70
2018-09-28T23:38:54.613Z,2.60
2018-09-28T23:40:58.076Z,2.50
2018-09-28T23:43:01.739Z,2.70
2018-09-28T23:45:05.001Z,2.70
2018-09-28T23:47:08.448Z,2.98
2018-09-28T23:49:11.891Z,3.00
2018-09-28T23:51:15.799Z,3.37
2018-09-28T23:53:19.239Z,2.60
2018-09-28T23:55:22.464Z,3.12
2018-09-28T23:57:25.912Z,2.67
2018-09-28T23:59:29.383Z,3.10
